Time;durP1;ratioP1;P1;durP2;ratioP2;P2;SDS_P1;SDS_P2;PMS_P1;PMS_P2;Temp;Humidity;BMP_temperature;BMP_pressure;BME280_temperature;BME280_humidity;BME280_pressure;Samples;Min_cycle;Max_cycle;Signal;HPM_P1;HPM_P2
2022/04/21 00:01:38;;;;;;;9.50;6.30;;;10.00;90.80;;;;;;5106354;28;20449;-89
2022/04/21 00:08:45;;;;;;;9.77;5.00;;;10.00;91.20;;;;;;5104367;28;20434;-88
2022/04/21 00:24:53;;;;;;;7.70;5.13;;;9.70;93.90;;;;;;5117552;28;20479;-89
2022/04/21 00:33:37;;;;;;;7.73;5.10;;;9.50;94.80;;;;;;5101067;28;21049;-87
2022/04/21 00:36:35;;;;;;;9.50;5.50;;;9.50;95.10;;;;;;5103185;28;20619;-88
2022/04/21 00:39:22;;;;;;;10.23;4.67;;;9.40;95.60;;;;;;5102780;28;20429;-90
2022/04/21 00:42:18;;;;;;;8.57;5.17;;;9.30;96.00;;;;;;5093507;28;20455;-87
2022/04/21 00:45:17;;;;;;;6.67;4.97;;;9.30;96.40;;;;;;5106093;28;20471;-88
2022/04/21 00:48:31;;;;;;;7.43;5.60;;;9.30;96.70;;;;;;5100489;28;20443;-88
2022/04/21 00:57:28;;;;;;;;;;;;;;;;;;;;;
2022/04/21 01:00:06;;;;;;;7.87;5.43;;;9.20;98.10;;;;;;5110521;28;20444;-87
2022/04/21 01:02:57;;;;;;;;;;;;;;;;;;;;;
2022/04/21 01:05:35;;;;;;;7.07;4.70;;;9.20;98.90;;;;;;5103077;28;20423;-88
2022/04/21 01:08:21;;;;;;;9.00;5.20;;;9.10;99.20;;;;;;5102740;28;20447;-87
2022/04/21 01:11:07;;;;;;;7.93;5.27;;;9.10;99.60;;;;;;5100498;28;20444;-88
2022/04/21 01:13:56;;;;;;;9.10;5.50;;;9.10;99.90;;;;;;5100564;28;20505;-87
2022/04/21 01:16:37;;;;;;;9.30;5.63;;;9.10;99.90;;;;;;5106714;28;20454;-88
2022/04/21 01:19:05;;;;;;;9.37;5.57;;;9.10;99.90;;;;;;5104959;28;20450;-87
2022/04/21 01:21:46;;;;;;;8.00;5.83;;;9.00;99.90;;;;;;5104602;28;20459;-86
2022/04/21 01:24:24;;;;;;;8.60;5.57;;;9.00;99.90;;;;;;5102317;28;20830;-87
2022/04/21 01:30:21;;;;;;;8.37;5.77;;;8.90;99.90;;;;;;5098005;28;20458;-87
2022/04/21 01:32:51;;;;;;;10.93;5.73;;;8.80;99.90;;;;;;5101412;28;21007;-88
2022/04/21 01:35:25;;;;;;;7.00;5.20;;;8.70;99.90;;;;;;5102586;28;20576;-89
2022/04/21 01:41:34;;;;;;;7.40;5.33;;;8.70;99.90;;;;;;5106539;28;20414;-88
2022/04/21 01:44:24;;;;;;;7.57;5.43;;;8.60;99.90;;;;;;5108883;28;20549;-87
2022/04/21 01:47:23;;;;;;;8.67;5.63;;;8.60;99.90;;;;;;5116812;28;20454;-87
2022/04/21 01:50:19;;;;;;;9.00;5.50;;;8.60;99.90;;;;;;5113210;28;20450;-88
2022/04/21 01:56:02;;;;;;;15.63;6.57;;;8.60;99.90;;;;;;5076065;28;20512;-88
2022/04/21 01:58:51;;;;;;;6.87;5.70;;;8.50;99.90;;;;;;5101469;28;20443;-88
2022/04/21 02:01:38;;;;;;;10.60;5.77;;;8.50;99.90;;;;;;5105516;28;20860;-87
2022/04/21 02:10:05;;;;;;;;;;;;;;;;;;;;;
2022/04/21 02:13:18;;;;;;;7.90;5.73;;;8.60;99.90;;;;;;5101497;28;20442;-88
2022/04/21 02:16:08;;;;;;;7.53;5.60;;;8.50;99.90;;;;;;5098307;28;20565;-88
2022/04/21 02:18:51;;;;;;;7.97;5.60;;;8.50;99.90;;;;;;5099590;28;20814;-86
2022/04/21 02:21:44;;;;;;;7.63;5.80;;;8.60;99.90;;;;;;5099925;28;20508;-87
2022/04/21 02:24:22;;;;;;;9.17;6.10;;;8.60;99.90;;;;;;5096507;28;20467;-86
2022/04/21 02:30:14;;;;;;;7.37;5.50;;;8.50;99.90;;;;;;5092476;28;20525;-88
2022/04/21 02:33:06;;;;;;;7.30;5.57;;;8.60;99.90;;;;;;5029879;28;20955;-87
2022/04/21 02:35:43;;;;;;;9.20;6.70;;;8.50;99.90;;;;;;5112554;28;20479;-88
2022/04/21 02:38:16;;;;;;;6.90;5.50;;;8.50;99.90;;;;;;5101083;28;20455;-88
2022/04/21 02:44:08;;;;;;;7.57;5.97;;;8.40;99.90;;;;;;5096203;28;20443;-86
2022/04/21 02:46:41;;;;;;;10.90;6.13;;;8.30;99.90;;;;;;5101398;28;20435;-88
2022/04/21 02:49:11;;;;;;;8.10;6.20;;;8.40;99.90;;;;;;5107931;28;20499;-88
2022/04/21 02:51:50;;;;;;;8.60;6.20;;;8.40;99.90;;;;;;5113178;28;20466;-85
2022/04/21 02:57:54;;;;;;;7.63;6.45;;;8.20;99.90;;;;;;5112495;28;20434;-87
2022/04/21 03:03:15;;;;;;;8.67;6.80;;;8.10;99.90;;;;;;5072362;28;20463;-87
2022/04/21 03:08:53;;;;;;;8.63;6.33;;;8.10;99.90;;;;;;5099657;28;20798;-86
2022/04/21 03:11:39;;;;;;;8.50;6.33;;;8.10;99.90;;;;;;5103540;28;20442;-87
2022/04/21 03:14:21;;;;;;;10.57;7.67;;;8.10;99.90;;;;;;5112622;28;20499;-87
2022/04/21 03:35:35;;;;;;;9.50;7.90;;;8.10;99.90;;;;;;5099600;28;20471;-88
2022/04/21 03:44:00;;;;;;;13.10;7.50;;;7.90;99.90;;;;;;5109642;28;20459;-87
2022/04/21 03:52:48;;;;;;;12.43;8.00;;;7.80;99.90;;;;;;4998634;28;20587;-87
2022/04/21 03:55:43;;;;;;;9.90;8.50;;;7.70;99.90;;;;;;5028921;28;20497;-87
2022/04/21 03:58:17;;;;;;;12.03;8.50;;;7.70;99.90;;;;;;5036105;28;20199;-87
2022/04/21 04:00:54;;;;;;;15.50;8.90;;;7.60;99.90;;;;;;5092021;28;20477;-86
2022/04/21 04:03:48;;;;;;;15.03;9.10;;;7.70;99.90;;;;;;5111423;28;20466;-87
2022/04/21 04:12:27;;;;;;;9.90;8.53;;;7.70;99.90;;;;;;5117015;28;20461;-86
2022/04/21 04:15:35;;;;;;;10.40;7.63;;;7.60;99.90;;;;;;5105248;28;20470;-87
2022/04/21 04:21:43;;;;;;;14.93;8.60;;;7.60;99.90;;;;;;5093919;28;20469;-87
2022/04/21 04:24:10;;;;;;;12.52;8.65;;;7.50;99.90;;;;;;5099286;22;20495;-84
2022/04/21 04:26:36;;;;;;;13.83;9.33;;;7.50;99.90;;;;;;5062123;28;20593;-85
2022/04/21 04:29:05;;;;;;;15.00;8.93;;;7.60;99.90;;;;;;5060871;28;20487;-87
2022/04/21 04:31:33;;;;;;;11.90;8.87;;;7.60;99.90;;;;;;5060300;28;20540;-86
2022/04/21 04:34:01;;;;;;;14.20;9.23;;;7.60;99.90;;;;;;5063510;28;20460;-86
2022/04/21 04:36:28;;;;;;;11.10;9.30;;;7.60;99.90;;;;;;5074955;28;20457;-86
2022/04/21 04:38:55;;;;;;;12.77;9.20;;;7.50;99.90;;;;;;5063663;28;20445;-84
2022/04/21 04:44:06;;;;;;;11.38;9.10;;;7.50;99.90;;;;;;5060863;28;20702;-84
2022/04/21 04:46:35;;;;;;;15.70;10.30;;;7.60;99.90;;;;;;5060804;28;20245;-84
2022/04/21 04:49:04;;;;;;;12.13;8.77;;;7.50;99.90;;;;;;5061713;28;20448;-84
2022/04/21 04:51:31;;;;;;;12.03;9.23;;;7.60;99.90;;;;;;5061913;28;20464;-85
2022/04/21 04:53:58;;;;;;;10.40;9.30;;;7.60;99.90;;;;;;5061873;28;20559;-85
2022/04/21 04:56:27;;;;;;;10.83;9.73;;;7.60;99.90;;;;;;5062057;28;20481;-85
2022/04/21 04:58:54;;;;;;;14.20;9.77;;;7.50;99.90;;;;;;5060057;28;20942;-83
2022/04/21 05:01:34;;;;;;;13.10;9.60;;;7.60;99.90;;;;;;5061022;28;20460;-85
2022/04/21 05:04:04;;;;;;;11.03;9.83;;;7.70;99.90;;;;;;5062183;28;20809;-84
2022/04/21 05:06:35;;;;;;;12.83;9.87;;;7.90;99.90;;;;;;5065113;28;20448;-83
2022/04/21 05:09:02;;;;;;;14.97;10.27;;;7.80;99.90;;;;;;5072376;28;20445;-85
2022/04/21 05:11:29;;;;;;;14.13;10.03;;;7.70;99.90;;;;;;5074264;28;20433;-85
2022/04/21 05:13:57;;;;;;;12.73;10.37;;;7.70;99.90;;;;;;5079303;28;20464;-83
2022/04/21 05:16:24;;;;;;;12.77;9.93;;;7.70;99.90;;;;;;5072013;28;20563;-84
2022/04/21 05:18:51;;;;;;;13.90;10.00;;;7.80;99.90;;;;;;5078283;28;20501;-83
2022/04/21 05:21:20;;;;;;;11.93;10.30;;;7.70;99.90;;;;;;5074367;28;20483;-83
2022/04/21 05:23:48;;;;;;;13.70;10.37;;;7.80;99.90;;;;;;5078684;28;20539;-84
2022/04/21 05:26:16;;;;;;;12.10;10.50;;;7.80;99.90;;;;;;5102490;28;20431;-83
2022/04/21 05:28:43;;;;;;;14.60;11.43;;;7.80;99.90;;;;;;5101936;28;20457;-84
2022/04/21 05:31:10;;;;;;;14.73;11.10;;;7.80;99.90;;;;;;5101575;28;20461;-83
2022/04/21 05:33:38;;;;;;;16.67;12.27;;;7.70;99.90;;;;;;5102013;28;20480;-84
2022/04/21 05:36:06;;;;;;;17.40;11.97;;;7.80;99.90;;;;;;5102874;28;20478;-84
2022/04/21 05:38:35;;;;;;;17.83;11.40;;;7.80;99.90;;;;;;5109068;28;20510;-85
2022/04/21 05:41:03;;;;;;;16.43;12.83;;;7.90;99.90;;;;;;5101095;28;20490;-84
2022/04/21 05:43:40;;;;;;;13.13;11.10;;;8.00;99.90;;;;;;5104584;28;20471;-85
2022/04/21 05:46:07;;;;;;;14.03;11.83;;;8.00;99.90;;;;;;5100776;28;20865;-85
2022/04/21 05:48:35;;;;;;;15.07;12.27;;;8.10;99.90;;;;;;5102156;28;20514;-84
2022/04/21 05:51:02;;;;;;;13.57;10.60;;;8.10;99.90;;;;;;5110113;28;20462;-83
2022/04/21 05:53:29;;;;;;;15.07;12.33;;;8.10;99.90;;;;;;5109766;28;20538;-83
2022/04/21 05:55:58;;;;;;;14.17;11.83;;;8.20;99.90;;;;;;5111925;28;20538;-81
2022/04/21 05:58:25;;;;;;;15.37;11.90;;;8.30;99.90;;;;;;5102754;28;20549;-85
2022/04/21 06:00:52;;;;;;;15.63;12.60;;;8.30;99.90;;;;;;5100225;28;20443;-83
2022/04/21 06:03:21;;;;;;;13.87;12.00;;;8.40;99.90;;;;;;5098451;28;20844;-84
2022/04/21 06:05:48;;;;;;;15.97;12.87;;;8.40;99.90;;;;;;5098675;28;20447;-82
2022/04/21 06:08:15;;;;;;;15.10;12.53;;;8.50;99.90;;;;;;5101899;28;20457;-82
2022/04/21 06:10:42;;;;;;;16.33;13.63;;;8.60;99.90;;;;;;5104943;28;20481;-85
2022/04/21 06:13:15;;;;;;;17.13;14.50;;;8.70;99.90;;;;;;5102908;28;20430;-85
2022/04/21 06:15:43;;;;;;;15.27;13.07;;;8.80;99.90;;;;;;5103885;28;20466;-84
2022/04/21 06:18:10;;;;;;;22.83;12.60;;;9.00;99.90;;;;;;5108443;28;20458;-87
2022/04/21 06:20:37;;;;;;;20.60;15.33;;;9.10;99.90;;;;;;5108933;28;20462;-86
2022/04/21 06:23:04;;;;;;;24.43;15.33;;;9.40;99.90;;;;;;5104052;28;20450;-84
2022/04/21 06:25:31;;;;;;;19.27;14.50;;;9.30;99.90;;;;;;5102720;28;20542;-85
2022/04/21 06:27:58;;;;;;;17.70;13.80;;;9.30;99.90;;;;;;5099481;28;20534;-85
2022/04/21 06:30:26;;;;;;;19.40;14.43;;;9.50;99.90;;;;;;5097391;28;20939;-85
2022/04/21 06:32:53;;;;;;;17.87;13.53;;;9.60;99.90;;;;;;5097936;28;20549;-85
2022/04/21 06:35:20;;;;;;;17.57;14.30;;;9.60;99.90;;;;;;5098424;28;20512;-83
2022/04/21 06:37:47;;;;;;;22.80;15.33;;;9.60;99.90;;;;;;5098243;28;20457;-83
2022/04/21 06:40:15;;;;;;;15.27;12.80;;;9.60;99.90;;;;;;5098833;28;20448;-84
2022/04/21 06:42:42;;;;;;;22.33;16.10;;;9.70;99.90;;;;;;5100708;28;20429;-85
2022/04/21 06:48:05;;;;;;;21.40;12.40;;;9.80;99.90;;;;;;5102919;28;20438;-85
2022/04/21 06:50:33;;;;;;;16.20;13.33;;;10.00;99.90;;;;;;5100485;28;20522;-84
2022/04/21 06:53:00;;;;;;;23.27;16.60;;;10.00;99.90;;;;;;5101693;28;20443;-85
2022/04/21 06:55:28;;;;;;;15.77;13.60;;;10.00;99.90;;;;;;5100800;28;20582;-84
2022/04/21 06:57:55;;;;;;;19.67;13.60;;;10.00;99.90;;;;;;5104162;28;20446;-84
2022/04/21 07:00:25;;;;;;;21.10;11.77;;;10.20;99.90;;;;;;5102382;28;20806;-85
2022/04/21 07:02:57;;;;;;;14.73;11.70;;;10.40;99.90;;;;;;5103640;28;20466;-84
2022/04/21 07:05:26;;;;;;;17.70;13.40;;;10.40;99.90;;;;;;5099524;28;20553;-85
2022/04/21 07:07:53;;;;;;;16.30;13.80;;;10.40;99.90;;;;;;5098588;28;20970;-85
2022/04/21 07:10:21;;;;;;;15.70;13.47;;;10.50;99.90;;;;;;5101781;28;20464;-85
2022/04/21 07:12:48;;;;;;;16.20;12.50;;;10.40;99.90;;;;;;5103396;28;20537;-83
2022/04/21 07:15:15;;;;;;;17.70;13.00;;;10.30;99.90;;;;;;5107157;28;20490;-84
2022/04/21 07:17:43;;;;;;;19.47;13.33;;;10.30;99.90;;;;;;5119101;28;20506;-84
2022/04/21 07:20:12;;;;;;;15.17;13.57;;;10.20;99.90;;;;;;5104753;28;20511;-85
2022/04/21 07:22:40;;;;;;;14.57;13.03;;;10.30;99.90;;;;;;5103591;28;20451;-85
2022/04/21 07:25:09;;;;;;;15.83;12.60;;;10.50;99.90;;;;;;5103755;28;20548;-83
2022/04/21 07:27:37;;;;;;;16.90;13.63;;;10.60;99.90;;;;;;5102570;28;20425;-85
2022/04/21 07:30:05;;;;;;;13.50;11.90;;;10.80;99.90;;;;;;5105169;28;20431;-84
2022/04/21 07:32:32;;;;;;;19.83;12.83;;;10.90;99.90;;;;;;5104409;28;20425;-85
2022/04/21 07:35:00;;;;;;;14.40;11.50;;;10.90;99.90;;;;;;5103191;28;20870;-85
2022/04/21 07:37:28;;;;;;;19.70;14.10;;;10.80;99.90;;;;;;5102956;28;20520;-85
2022/04/21 07:39:56;;;;;;;22.70;13.70;;;10.90;99.90;;;;;;5103082;28;20984;-84
2022/04/21 07:42:23;;;;;;;13.93;11.60;;;11.10;99.90;;;;;;5102818;28;20505;-84
2022/04/21 07:44:49;;;;;;;16.43;12.37;;;11.20;99.90;;;;;;5102820;28;20481;-83
2022/04/21 07:47:16;;;;;;;12.20;8.03;;;11.20;99.90;;;;;;5103657;28;20528;-84
2022/04/21 07:49:46;;;;;;;16.43;12.43;;;11.20;99.90;;;;;;5102307;28;20482;-83
2022/04/21 07:55:18;;;;;;;15.13;13.00;;;11.30;99.90;;;;;;5120320;28;20502;-81
2022/04/21 07:57:46;;;;;;;17.13;12.10;;;11.40;99.90;;;;;;5121017;28;20474;-82
2022/04/21 08:00:15;;;;;;;15.13;13.47;;;11.60;99.90;;;;;;5113778;28;20523;-85
2022/04/21 08:02:44;;;;;;;18.10;13.73;;;11.70;99.90;;;;;;5120469;28;20491;-82
2022/04/21 08:05:13;;;;;;;21.90;12.23;;;11.80;99.90;;;;;;5114842;28;20509;-84
2022/04/21 08:07:40;;;;;;;16.20;11.67;;;11.90;99.50;;;;;;5111363;28;20421;-84
2022/04/21 08:10:08;;;;;;;15.47;13.07;;;12.00;99.40;;;;;;5104102;28;20406;-84
2022/04/21 08:12:41;;;;;;;13.70;11.17;;;12.00;99.30;;;;;;5103060;28;20500;-85
2022/04/21 08:15:09;;;;;;;14.77;10.80;;;12.00;98.90;;;;;;5103541;28;20452;-85
2022/04/21 08:17:37;;;;;;;14.70;11.10;;;12.00;98.60;;;;;;5107348;28;20470;-85
2022/04/21 08:20:06;;;;;;;13.03;10.10;;;11.90;98.90;;;;;;5110126;28;20418;-85
2022/04/21 08:22:33;;;;;;;15.53;12.07;;;11.90;99.10;;;;;;5105795;28;20425;-85
2022/04/21 08:33:15;;;;;;;13.07;10.93;;;12.30;98.70;;;;;;5105577;28;20488;-85
2022/04/21 08:35:43;;;;;;;12.53;10.63;;;12.60;98.20;;;;;;5111262;28;20455;-84
2022/04/21 08:38:11;;;;;;;12.60;10.63;;;12.80;97.50;;;;;;5112895;28;20451;-82
2022/04/21 08:40:38;;;;;;;14.30;10.33;;;12.80;96.70;;;;;;5116632;28;20405;-84
2022/04/21 08:43:15;;;;;;;12.17;10.40;;;12.80;96.70;;;;;;5109678;28;20907;-83
2022/04/21 08:45:43;;;;;;;15.30;9.60;;;12.90;96.50;;;;;;5102899;28;20413;-84
2022/04/21 08:48:12;;;;;;;12.50;10.10;;;12.80;96.20;;;;;;5101476;28;20458;-85
2022/04/21 08:50:39;;;;;;;14.10;11.77;;;12.80;96.60;;;;;;5102217;28;20435;-84
2022/04/21 08:53:06;;;;;;;13.67;11.17;;;12.70;96.50;;;;;;5102428;28;20452;-85
2022/04/21 08:55:33;;;;;;;15.07;12.17;;;12.90;96.40;;;;;;5101688;28;20422;-83
2022/04/21 08:58:01;;;;;;;11.97;9.87;;;12.80;96.10;;;;;;5102483;28;20664;-84
2022/04/21 09:00:33;;;;;;;13.27;8.60;;;13.00;95.80;;;;;;5102161;28;20453;-84
2022/04/21 09:03:04;;;;;;;18.77;11.30;;;13.10;95.60;;;;;;5101473;28;20434;-84
2022/04/21 09:05:31;;;;;;;13.47;11.80;;;13.20;95.40;;;;;;5101210;28;20503;-84
2022/04/21 09:08:00;;;;;;;13.37;10.30;;;13.20;95.40;;;;;;5100348;28;20512;-83
2022/04/21 09:10:28;;;;;;;13.17;10.80;;;13.30;95.00;;;;;;5101805;28;20437;-83
2022/04/21 09:12:57;;;;;;;14.00;10.07;;;13.40;95.00;;;;;;5102509;28;20418;-84
2022/04/21 09:15:27;;;;;;;12.57;10.67;;;13.50;94.20;;;;;;5101337;28;20609;-84
2022/04/21 09:17:57;;;;;;;17.70;11.73;;;13.50;93.80;;;;;;5101469;28;20453;-84
2022/04/21 09:20:26;;;;;;;16.23;11.43;;;13.60;93.80;;;;;;5100605;28;20417;-84
2022/04/21 09:22:55;;;;;;;12.90;10.17;;;13.60;93.00;;;;;;5100317;28;20429;-84
2022/04/21 09:25:23;;;;;;;13.30;10.90;;;13.70;93.50;;;;;;5100139;28;20483;-86
2022/04/21 09:27:50;;;;;;;11.93;10.70;;;13.70;93.50;;;;;;5100266;28;20521;-85
2022/04/21 09:30:17;;;;;;;12.83;11.33;;;13.80;93.00;;;;;;5100059;28;20530;-84
2022/04/21 09:32:52;;;;;;;11.57;10.37;;;13.80;93.00;;;;;;5099885;28;20518;-82
2022/04/21 09:35:22;;;;;;;13.10;10.20;;;13.80;93.10;;;;;;5100606;28;20520;-84
2022/04/21 09:37:51;;;;;;;13.20;9.73;;;13.70;93.10;;;;;;5102530;28;20842;-83
2022/04/21 09:40:19;;;;;;;13.53;10.87;;;13.70;92.90;;;;;;5104436;28;20453;-84
2022/04/21 09:42:57;;;;;;;13.60;10.50;;;13.90;93.00;;;;;;5101115;28;20424;-84
2022/04/21 09:48:23;;;;;;;12.10;10.70;;;14.10;93.00;;;;;;5101456;28;20426;-85
2022/04/21 09:50:53;;;;;;;12.80;10.60;;;14.20;92.60;;;;;;5101544;28;20480;-84
2022/04/21 09:53:23;;;;;;;17.03;11.10;;;14.30;92.30;;;;;;5102086;28;20444;-83
2022/04/21 09:55:51;;;;;;;11.97;9.73;;;14.40;92.00;;;;;;5101425;28;20939;-84
2022/04/21 09:58:19;;;;;;;12.10;9.37;;;14.60;91.60;;;;;;5108012;28;20474;-82
2022/04/21 10:00:46;;;;;;;12.93;9.97;;;14.50;91.50;;;;;;5112894;28;20447;-86
2022/04/21 10:03:14;;;;;;;12.10;9.00;;;14.40;91.30;;;;;;5103596;28;20790;-85
2022/04/21 10:05:41;;;;;;;11.53;9.33;;;14.40;91.50;;;;;;5105831;28;20447;-84
2022/04/21 10:08:11;;;;;;;12.67;9.60;;;14.60;91.20;;;;;;5106206;28;20474;-84
2022/04/21 10:10:39;;;;;;;10.57;9.40;;;14.60;91.00;;;;;;5103279;28;20426;-84
2022/04/21 10:13:07;;;;;;;11.47;9.63;;;14.70;90.70;;;;;;5105557;28;20441;-84
2022/04/21 10:15:35;;;;;;;12.73;9.37;;;14.90;90.40;;;;;;5102035;28;20442;-86
2022/04/21 10:18:02;;;;;;;11.60;9.77;;;14.90;90.20;;;;;;5101750;28;20471;-85
2022/04/21 10:20:31;;;;;;;10.90;9.70;;;14.90;89.80;;;;;;5100011;28;20451;-83
2022/04/21 10:23:00;;;;;;;14.13;9.20;;;14.80;90.00;;;;;;5100875;28;20457;-83
2022/04/21 13:03:45;;;;;;;;;;;;;;;;;;;;;
2022/04/21 16:14:45;;;;;;;5.27;2.13;;;17.60;68.30;;;;;;5018269;28;20393;-85
2022/04/21 16:27:36;;;;;;;5.40;3.23;;;17.50;67.70;;;;;;5148302;22;20515;-86
2022/04/21 16:30:06;;;;;;;6.20;3.33;;;17.50;68.00;;;;;;5085260;28;20493;-88
2022/04/21 16:32:33;;;;;;;5.00;2.97;;;17.40;67.60;;;;;;5086901;28;20448;-86
2022/04/21 16:35:00;;;;;;;5.40;2.60;;;17.40;67.50;;;;;;5085488;28;20498;-85
2022/04/21 16:37:27;;;;;;;7.10;2.43;;;17.20;66.80;;;;;;5101218;28;20448;-85
2022/04/21 16:39:59;;;;;;;5.10;2.77;;;17.20;67.10;;;;;;5107270;28;20440;-86
2022/04/21 16:46:28;;;;;;;2.90;1.50;;;17.10;66.20;;;;;;5086109;28;20426;-87
2022/04/21 17:05:15;;;;;;;4.00;2.20;;;16.90;66.00;;;;;;5117252;28;20469;-87
2022/04/21 17:07:49;;;;;;;3.30;1.83;;;16.70;66.20;;;;;;5052698;28;20534;-89
2022/04/21 17:17:22;;;;;;;4.50;2.03;;;16.80;66.80;;;;;;5070728;28;20443;-87
2022/04/21 17:23:40;;;;;;;6.20;3.33;;;16.50;68.20;;;;;;5041965;28;20491;-89
2022/04/21 17:26:26;;;;;;;5.30;3.53;;;16.40;68.80;;;;;;5050538;28;20538;-88
2022/04/21 17:29:07;;;;;;;5.60;3.60;;;16.40;68.80;;;;;;5074492;28;20451;-87
2022/04/21 17:32:06;;;;;;;4.90;2.90;;;16.50;68.90;;;;;;5075017;28;20427;-88
2022/04/21 17:34:36;;;;;;;5.90;4.27;;;16.50;68.60;;;;;;5057232;28;20453;-86
2022/04/21 17:37:06;;;;;;;6.23;3.30;;;16.40;68.90;;;;;;5062567;28;20488;-84
2022/04/21 17:39:33;;;;;;;4.97;2.90;;;16.20;69.30;;;;;;5063341;28;20431;-85
2022/04/21 17:42:01;;;;;;;6.37;3.70;;;16.30;69.60;;;;;;5064227;28;20430;-87
2022/04/21 17:44:28;;;;;;;8.03;3.57;;;16.40;69.50;;;;;;5063451;28;20590;-85
2022/04/21 17:46:55;;;;;;;5.83;3.37;;;16.20;69.80;;;;;;5063675;28;20451;-86
2022/04/21 17:49:22;;;;;;;5.90;3.87;;;16.00;70.80;;;;;;5063178;28;20455;-85
2022/04/21 17:51:51;;;;;;;5.63;4.00;;;16.10;71.50;;;;;;5061190;28;20437;-87
2022/04/21 17:54:19;;;;;;;6.43;3.90;;;16.00;71.50;;;;;;5062364;28;20795;-85
2022/04/21 17:56:48;;;;;;;6.57;4.80;;;16.00;71.70;;;;;;5066431;28;20486;-85
2022/04/21 17:59:15;;;;;;;5.80;4.50;;;16.10;72.20;;;;;;5064284;28;20448;-85
2022/04/21 18:01:42;;;;;;;7.53;5.17;;;16.00;73.00;;;;;;5063152;28;20444;-86
2022/04/21 18:04:11;;;;;;;7.67;4.23;;;15.70;72.80;;;;;;5062952;28;20461;-85
2022/04/21 18:06:39;;;;;;;5.87;4.40;;;15.70;73.20;;;;;;5077848;28;20545;-84
2022/04/21 18:09:08;;;;;;;7.33;4.93;;;15.50;73.50;;;;;;5091206;28;20423;-84
2022/04/21 18:11:35;;;;;;;6.00;4.63;;;15.50;73.90;;;;;;5091745;28;20463;-86
2022/04/21 18:14:03;;;;;;;7.30;4.00;;;15.50;74.00;;;;;;5083861;28;20402;-86
2022/04/21 18:16:42;;;;;;;6.70;4.50;;;15.50;73.90;;;;;;5082986;28;20479;-86
2022/04/21 18:19:09;;;;;;;8.43;4.40;;;15.70;73.90;;;;;;5079390;28;20551;-84
2022/04/21 18:21:36;;;;;;;7.70;4.80;;;15.60;73.90;;;;;;5080601;28;20471;-84
2022/04/21 18:24:12;;;;;;;7.93;4.60;;;15.50;74.20;;;;;;5081947;28;20464;-86
2022/04/21 18:26:39;;;;;;;6.97;4.17;;;15.60;74.20;;;;;;5086041;28;20441;-85
2022/04/21 18:29:14;;;;;;;10.50;4.23;;;15.40;74.40;;;;;;5084136;28;20454;-88
2022/04/21 18:31:49;;;;;;;10.60;4.47;;;15.50;74.60;;;;;;5083887;28;20455;-86
2022/04/21 18:41:04;;;;;;;5.03;3.43;;;15.40;74.20;;;;;;5015665;28;20428;-86
2022/04/21 18:43:31;;;;;;;4.50;3.10;;;15.40;74.20;;;;;;5082081;28;20423;-85
2022/04/21 18:46:03;;;;;;;9.20;5.07;;;15.30;73.70;;;;;;5081642;28;20960;-86
2022/04/21 18:48:35;;;;;;;11.83;6.77;;;15.40;75.00;;;;;;5081447;28;20425;-84
2022/04/21 18:51:36;;;;;;;9.70;5.50;;;15.40;76.60;;;;;;5064604;28;20431;-86
2022/04/21 18:54:04;;;;;;;5.80;3.93;;;15.20;76.90;;;;;;5082676;28;20452;-86
2022/04/21 18:56:32;;;;;;;6.73;3.70;;;15.20;77.70;;;;;;5082329;28;20446;-84
2022/04/21 18:59:12;;;;;;;7.07;4.63;;;15.00;77.80;;;;;;5082094;28;20479;-85
2022/04/21 19:01:43;;;;;;;5.67;4.17;;;14.90;78.50;;;;;;5081009;28;20872;-86
2022/04/21 19:04:19;;;;;;;6.47;3.87;;;14.90;78.80;;;;;;5081002;28;20521;-87
2022/04/21 19:06:49;;;;;;;8.83;4.47;;;14.80;78.90;;;;;;5081389;28;20474;-86
2022/04/21 19:12:07;;;;;;;6.53;4.10;;;14.70;79.50;;;;;;5081092;28;20439;-85
2022/04/21 19:14:34;;;;;;;8.13;4.20;;;14.70;79.60;;;;;;5081298;28;20383;-86
2022/04/21 19:17:02;;;;;;;8.40;4.07;;;14.70;80.10;;;;;;5085153;28;20475;-85
2022/04/21 19:19:31;;;;;;;9.47;4.57;;;14.70;80.10;;;;;;5091581;28;20459;-85
2022/04/21 19:21:58;;;;;;;6.67;4.40;;;14.60;80.50;;;;;;5091192;28;20410;-85
2022/04/21 19:24:25;;;;;;;4.97;3.33;;;14.70;80.40;;;;;;5083456;28;20547;-86
2022/04/21 19:26:55;;;;;;;11.23;5.30;;;14.70;80.20;;;;;;5083572;28;20451;-83
2022/04/21 19:29:29;;;;;;;7.53;4.23;;;14.50;80.20;;;;;;5093636;28;20422;-85
2022/04/21 19:32:08;;;;;;;6.53;3.90;;;14.50;80.30;;;;;;5094517;28;20427;-85
2022/04/21 19:34:57;;;;;;;6.10;4.30;;;14.40;80.30;;;;;;5092587;28;20523;-85
2022/04/21 19:37:30;;;;;;;5.43;3.83;;;14.30;80.70;;;;;;5086971;28;20495;-85
2022/04/21 19:40:04;;;;;;;6.70;3.67;;;14.40;80.50;;;;;;5087278;28;20453;-84
2022/04/21 19:42:40;;;;;;;8.07;3.80;;;14.50;80.30;;;;;;5086865;28;20458;-87
2022/04/21 19:45:23;;;;;;;8.77;3.20;;;14.50;80.40;;;;;;5083218;28;20442;-83
2022/04/21 19:47:58;;;;;;;6.00;3.40;;;14.30;80.60;;;;;;5088121;28;20486;-86
2022/04/21 19:50:26;;;;;;;5.87;4.00;;;14.30;80.80;;;;;;5081444;28;20425;-86
2022/04/21 19:52:53;;;;;;;6.50;3.90;;;14.20;81.20;;;;;;5081149;28;20453;-87
2022/04/21 19:55:22;;;;;;;5.50;3.70;;;14.10;81.60;;;;;;5085436;28;20498;-87
2022/04/21 19:57:51;;;;;;;6.30;3.60;;;14.20;81.90;;;;;;5083195;28;20511;-87
2022/04/21 20:00:22;;;;;;;6.47;3.97;;;14.10;82.00;;;;;;5080364;28;20551;-87
2022/04/21 20:02:49;;;;;;;11.63;4.47;;;14.00;82.20;;;;;;5084955;28;20437;-83
2022/04/21 20:08:54;;;;;;;11.00;4.53;;;14.00;82.60;;;;;;5095774;28;20476;-87
2022/04/21 20:10:51;;;;;;;8.83;4.67;;;13.90;84.60;;;;;;5084007;28;20453;-86
2022/04/21 20:13:20;;;;;;;8.17;4.73;;;13.90;84.20;;;;;;5081734;28;20846;-84
2022/04/21 20:15:52;;;;;;;9.10;5.17;;;13.90;84.30;;;;;;5080730;28;20447;-86
2022/04/21 20:18:30;;;;;;;8.87;5.10;;;13.80;84.40;;;;;;5086151;28;20438;-88
2022/04/21 20:23:48;;;;;;;6.23;4.23;;;13.60;85.20;;;;;;5086092;28;20810;-86
2022/04/21 20:29:01;;;;;;;5.50;3.90;;;13.50;86.60;;;;;;5087235;28;20390;-87
2022/04/21 20:31:29;;;;;;;7.10;4.47;;;13.50;87.00;;;;;;5089402;28;20456;-88
2022/04/21 20:33:59;;;;;;;6.57;4.03;;;13.50;86.90;;;;;;5084574;28;20422;-88
2022/04/21 20:36:26;;;;;;;6.00;4.80;;;13.50;87.30;;;;;;5083037;28;20450;-87
2022/04/21 20:38:56;;;;;;;8.07;4.87;;;13.50;87.70;;;;;;5082811;28;20458;-86
2022/04/21 20:41:23;;;;;;;4.93;3.20;;;13.50;87.80;;;;;;5082679;28;20422;-86
2022/04/21 20:43:50;;;;;;;5.60;3.57;;;13.60;89.40;;;;;;5082735;28;20430;-86
2022/04/21 20:46:18;;;;;;;5.60;3.90;;;13.50;88.70;;;;;;5082603;28;20499;-86
2022/04/21 20:48:49;;;;;;;5.83;3.63;;;13.30;89.40;;;;;;5086368;28;20461;-87
2022/04/21 20:51:17;;;;;;;9.03;3.20;;;13.40;89.80;;;;;;5094888;28;20473;-86
2022/04/21 20:53:53;;;;;;;8.47;3.80;;;13.20;90.10;;;;;;5086702;28;20418;-86
2022/04/21 20:56:23;;;;;;;5.67;3.27;;;13.20;90.40;;;;;;5084072;28;20475;-86
2022/04/21 20:58:50;;;;;;;5.60;3.20;;;13.20;90.50;;;;;;5091586;28;20475;-87
2022/04/21 21:01:18;;;;;;;5.20;2.97;;;13.10;90.80;;;;;;5097012;28;20428;-85
2022/04/21 21:03:46;;;;;;;5.93;3.50;;;13.00;91.20;;;;;;5085685;28;20422;-86
2022/04/21 21:07:05;;;;;;;7.20;3.90;;;13.10;91.50;;;;;;5081008;28;20798;-86
2022/04/21 21:09:02;;;;;;;8.40;4.20;;;13.10;91.30;;;;;;5080587;28;20207;-87
2022/04/21 21:11:29;;;;;;;6.30;3.57;;;13.30;91.20;;;;;;5081356;28;20466;-86
2022/04/21 21:13:56;;;;;;;7.00;3.00;;;13.30;91.20;;;;;;5081522;28;20455;-84
2022/04/21 21:16:23;;;;;;;4.97;3.60;;;12.90;91.60;;;;;;5080716;28;20474;-86
2022/04/21 21:18:52;;;;;;;7.03;3.70;;;12.90;92.10;;;;;;5083065;28;20543;-86
2022/04/21 21:21:19;;;;;;;8.17;3.83;;;12.90;92.10;;;;;;5083038;28;20468;-85
2022/04/21 21:23:46;;;;;;;5.17;3.33;;;12.90;92.30;;;;;;5080337;28;20429;-86
2022/04/21 21:26:13;;;;;;;6.30;3.43;;;12.80;92.40;;;;;;5089500;28;20511;-82
2022/04/21 21:28:40;;;;;;;6.03;3.90;;;12.80;92.60;;;;;;5098015;28;20431;-85
2022/04/21 21:31:07;;;;;;;5.40;3.77;;;12.80;92.90;;;;;;5089484;28;20442;-86
2022/04/21 21:33:34;;;;;;;6.97;4.13;;;12.80;92.90;;;;;;5083090;28;20498;-85
2022/04/21 21:36:02;;;;;;;5.83;4.07;;;12.80;93.10;;;;;;5094236;28;20481;-86
2022/04/21 21:38:29;;;;;;;5.47;3.67;;;12.80;93.10;;;;;;5081177;28;20551;-88
2022/04/21 21:40:59;;;;;;;5.40;3.40;;;12.80;93.30;;;;;;5079822;28;20468;-87
2022/04/21 21:43:26;;;;;;;5.50;3.30;;;12.70;93.50;;;;;;5078799;28;20450;-87
2022/04/21 21:45:53;;;;;;;6.83;4.00;;;12.70;94.10;;;;;;5079105;28;21027;-87
2022/04/21 21:53:47;;;;;;;5.80;3.60;;;12.50;94.40;;;;;;5078108;28;20429;-86
2022/04/21 21:56:15;;;;;;;6.80;4.00;;;12.40;94.90;;;;;;5078293;28;20459;-85
2022/04/21 21:58:42;;;;;;;5.30;3.70;;;12.40;95.10;;;;;;5079756;28;20514;-87
2022/04/21 22:01:08;;;;;;;5.20;3.40;;;12.50;95.20;;;;;;5079120;28;20836;-87
2022/04/21 22:03:35;;;;;;;6.13;3.80;;;12.60;94.80;;;;;;5079015;28;20458;-87